Milford, MI

1:55 AM EDT on September 02, 2014 (GMT -0400)
West Milford Township | Change Station
CLOSE
Current Station
Personal Weather Station
Location: Milford, MI
Elevation: 994 ft
Nearby Weather Stations

Elev 994 ft 42.59 °N, 83.63 °W | Updated 35 seconds ago

Clear
Clear
68.4 °F
Feels Like 68.4 °F
N
0.0
Wind Variable Wind from WSW
Gusts 0.0 mph

Today
High -- | Low -- °F
--% Chance of Precip.
Yesterday
High -- | Low -- °F
Precip. -- in
7:00 AM 8:07 PM
Waxing Crescent, 48% visible
Pressure 29.83 in
Visibility 9.0 miles
Clouds Clear
Dew Point 65 °F
Humidity 89%
Rainfall -999.00 in
Snow Depth Not available.
UV 0 out of 12
Pollen 9.50 out of 12
Ozone Good
PM2.5 Good
Flu Activity Not available.
METAR KPTK 020453Z 20003KT 9SM CLR 21/19 A2984 RMK AO2 SLP099 T02110194 402830189 $

More Conditions Fewer Conditions

Pressure 29.83 in
Visibility 9.0 miles
Clouds Clear
Dew Point 65 °F
Humidity 89%
Rainfall -999.00 in
Snow Depth Not available.
UV 0 out of 12
Pollen 9.50 out of 12
Ozone Good
PM2.5 Good
Flu Activity Not available.
METAR KPTK 020453Z 20003KT 9SM CLR 21/19 A2984 RMK AO2 SLP099 T02110194 402830189 $

More Conditions Fewer Conditions

10-Day Weather Forecast

Almanac

Astronomy

Sep. 02, 2014 Rise Set
Actual Time 7:00 AM EDT 8:07 PM EDT
Civil Twilight 6:31 AM EDT 8:35 PM EDT
Nautical Twilight 5:56 AM EDT 9:10 PM EDT
Astronomical Twilight 5:20 AM EDT 9:46 PM EDT
Moon 2:53 PM EDT 12:00 AM EDT
Length of Visible Light 14h 04m
Length of Day
13h 06m
Tomorrow will be 2m 47s shorter.
Waxing Crescent, 48% of the Moon is Illuminated
Today
Waxing Crescent
Sep 2
First Quarter
Sep 8
Full
Sep 15
Last Quarter
Sep 24
New

Today's Extremes

State Highs State Lows

Community

WunderPhotos

Upload Photos

1,749,579 photos uploaded!

WunderBlogs® & News

Nearby

Air Quality

  Air Quality AQ Index Pollutant
Yesterday Good
PM2.5
Yesterday Good
OZONE
Current Good
PM2.5
Current Good
OZONE
Tuesday Good
OZONE
Tuesday Good
PM2.5

Snow Depth

Station Depth Elevation
No new snow has been reported.

Earthquake Activity

City Distance Mag. Time & Date
No recent earthquake activity has been reported nearby.
Minimum magnitude displayed is 2.5.

Coastal Water Temperatures

Place Temperature
No Stations Reporting

Nearby Weather Stations